Time;durP1;ratioP1;P1;durP2;ratioP2;P2;SDS_P1;SDS_P2;PMS_P1;PMS_P2;Temp;Humidity;BMP_temperature;BMP_pressure;BME280_temperature;BME280_humidity;BME280_pressure;Samples;Min_cycle;Max_cycle;Signal;HPM_P1;HPM_P2
2022/03/08 00:02:22;;;;;;;;;;;;;;;-1.02;53.00;98710.50;5069896;28;20425;-79
2022/03/08 00:04:50;;;;;;;;;;;;;;;-1.01;52.94;98699.63;5087389;28;19931;-80
2022/03/08 00:07:18;;;;;;;;;;;;;;;-0.98;52.83;98704.50;5091304;28;19924;-80
2022/03/08 00:09:50;;;;;;;;;;;;;;;-0.91;53.30;98710.59;5090111;28;20019;-80
2022/03/08 00:12:18;;;;;;;;;;;;;;;-0.96;53.06;98701.63;5084645;28;19931;-80
2022/03/08 00:14:45;;;;;;;;;;;;;;;-1.14;53.63;98705.88;5111225;27;19924;-79
2022/03/08 00:17:15;;;;;;;;;;;;;;;-1.12;53.34;98710.97;5117501;27;20385;-79
2022/03/08 00:19:43;;;;;;;;;;;;;;;-0.89;52.19;98705.88;5118403;27;20416;-78
2022/03/08 00:22:14;;;;;;;;;;;;;;;-0.75;52.58;98719.91;5120516;27;19928;-79
2022/03/08 00:24:43;;;;;;;;;;;;;;;-0.76;52.83;98712.94;5115260;27;19924;-80
2022/03/08 00:27:11;;;;;;;;;;;;;;;-0.85;52.35;98709.75;5118561;27;20405;-79
2022/03/08 00:29:40;;;;;;;;;;;;;;;-0.87;52.08;98708.31;5123139;27;19992;-81
2022/03/08 00:32:08;;;;;;;;;;;;;;;-0.71;51.95;98706.97;5100457;27;19932;-81
2022/03/08 00:34:37;;;;;;;;;;;;;;;-0.72;51.88;98700.81;5118056;27;19958;-81
2022/03/08 00:37:05;;;;;;;;;;;;;;;-0.66;52.00;98702.59;5115946;27;19928;-80
2022/03/08 00:39:33;;;;;;;;;;;;;;;-0.76;51.92;98696.13;5117815;27;21221;-81
2022/03/08 00:42:01;;;;;;;;;;;;;;;-1.02;52.66;98691.81;5118739;27;19986;-80
2022/03/08 00:44:29;;;;;;;;;;;;;;;-0.82;52.07;98689.81;5112312;27;19923;-80
2022/03/08 00:47:21;;;;;;;;;;;;;;;-0.87;52.37;98685.13;5117041;27;19932;-80
2022/03/08 00:49:56;;;;;;;;;;;;;;;-0.83;52.09;98680.19;5110790;27;19924;-80
2022/03/08 00:52:24;;;;;;;;;;;;;;;-1.08;53.07;98681.00;5102221;27;19931;-80
2022/03/08 00:54:54;;;;;;;;;;;;;;;-0.62;51.71;98666.44;5120452;27;19966;-79
2022/03/08 00:57:21;;;;;;;;;;;;;;;-0.63;51.62;98670.16;5103695;27;19923;-79
2022/03/08 00:59:49;;;;;;;;;;;;;;;-0.42;51.15;98660.09;5119576;27;19924;-79
2022/03/08 01:02:17;;;;;;;;;;;;;;;-0.46;51.09;98653.56;5119454;27;19965;-79
2022/03/08 01:04:45;;;;;;;;;;;;;;;-0.71;51.90;98651.75;5094833;28;20263;-79
2022/03/08 01:07:17;;;;;;;;;;;;;;;-0.70;51.95;98658.69;5119134;27;19931;-79
2022/03/08 01:09:46;;;;;;;;;;;;;;;-0.67;51.94;98658.28;5118486;27;19924;-78
2022/03/08 01:12:14;;;;;;;;;;;;;;;-0.65;51.61;98658.84;5119132;27;20001;-79
2022/03/08 01:14:41;;;;;;;;;;;;;;;-0.56;51.51;98649.53;5106137;27;20023;-80
2022/03/08 01:17:09;;;;;;;;;;;;;;;-0.98;52.36;98647.69;5092252;28;19928;-80
2022/03/08 01:19:37;;;;;;;;;;;;;;;-0.98;53.12;98650.34;5092584;28;19928;-79
2022/03/08 01:22:05;;;;;;;;;;;;;;;-0.96;52.74;98649.13;5089833;28;20389;-80
2022/03/08 01:24:49;;;;;;;;;;;;;;;-0.83;52.52;98650.84;5090658;28;19924;-78
2022/03/08 01:27:18;;;;;;;;;;;;;;;-0.78;52.67;98643.00;5085401;28;19931;-80
2022/03/08 01:29:47;;;;;;;;;;;;;;;-0.96;52.34;98638.44;5080401;28;19931;-83
2022/03/08 01:32:41;;;;;;;;;;;;;;;-0.98;52.60;98642.34;5089749;28;19932;-81
2022/03/08 01:35:09;;;;;;;;;;;;;;;-0.91;52.95;98635.09;5102576;27;20747;-81
2022/03/08 01:37:37;;;;;;;;;;;;;;;-0.91;52.83;98635.09;5091789;28;19939;-79
2022/03/08 01:40:05;;;;;;;;;;;;;;;-0.92;52.73;98628.13;5079887;28;19924;-79
2022/03/08 01:42:36;;;;;;;;;;;;;;;-0.78;52.29;98637.66;5091012;28;19975;-79
2022/03/08 01:45:04;;;;;;;;;;;;;;;-1.19;53.87;98638.22;5094220;28;19978;-81
2022/03/08 01:47:32;;;;;;;;;;;;;;;-1.27;53.85;98641.19;5093780;28;19925;-80
2022/03/08 01:50:00;;;;;;;;;;;;;;;-1.20;53.77;98626.75;5088625;28;20400;-79
2022/03/08 01:52:29;;;;;;;;;;;;;;;-1.28;54.02;98627.00;5077164;28;20321;-81
2022/03/08 01:54:57;;;;;;;;;;;;;;;-1.43;54.08;98621.19;5086222;28;19932;-83
2022/03/08 01:57:25;;;;;;;;;;;;;;;-1.27;54.05;98620.66;5087822;28;19938;-81
2022/03/08 01:59:55;;;;;;;;;;;;;;;-1.11;52.98;98619.31;5087176;28;19924;-80
2022/03/08 02:02:22;;;;;;;;;;;;;;;-1.14;53.35;98620.53;5083018;28;19963;-80
2022/03/08 02:04:51;;;;;;;;;;;;;;;-1.22;53.30;98617.34;5082267;28;19932;-80
2022/03/08 02:07:43;;;;;;;;;;;;;;;-1.21;53.68;98602.97;5068266;28;19931;-79
2022/03/08 02:10:12;;;;;;;;;;;;;;;-1.43;53.81;98606.03;5088676;28;20019;-81
2022/03/08 02:12:39;;;;;;;;;;;;;;;-1.65;54.72;98591.41;5082259;28;20446;-79
2022/03/08 02:15:12;;;;;;;;;;;;;;;-1.59;54.53;98594.03;5097858;28;19928;-80
2022/03/08 02:17:40;;;;;;;;;;;;;;;-1.37;54.51;98591.81;5118006;27;19999;-78
2022/03/08 02:24:28;;;;;;;;;;;;;;;-1.74;55.01;98577.56;5118207;27;20373;-82
2022/03/08 02:26:57;;;;;;;;;;;;;;;-1.59;54.76;98585.25;5114876;27;19955;-80
2022/03/08 02:29:25;;;;;;;;;;;;;;;-1.92;56.05;98569.47;5119720;27;19928;-80
2022/03/08 02:31:54;;;;;;;;;;;;;;;-1.69;55.81;98563.59;5118691;27;19951;-79
2022/03/08 02:34:21;;;;;;;;;;;;;;;-1.71;55.51;98581.63;5113919;27;20416;-79
2022/03/08 02:36:57;;;;;;;;;;;;;;;-1.58;54.55;98573.53;5112520;27;19927;-81
2022/03/08 02:39:25;;;;;;;;;;;;;;;-1.56;54.91;98575.97;5109530;27;19932;-81
2022/03/08 02:41:53;;;;;;;;;;;;;;;-1.45;54.98;98575.28;5114004;27;20032;-80
2022/03/08 02:44:24;;;;;;;;;;;;;;;-1.30;54.48;98566.97;5115601;27;19966;-82
2022/03/08 02:46:52;;;;;;;;;;;;;;;-1.51;54.45;98565.50;5115222;27;19947;-80
2022/03/08 02:49:21;;;;;;;;;;;;;;;-1.51;54.82;98571.63;5112210;27;20474;-81
2022/03/08 02:51:49;;;;;;;;;;;;;;;-1.50;55.13;98557.28;5108029;28;19955;-80
2022/03/08 02:54:17;;;;;;;;;;;;;;;-1.55;55.25;98558.97;5113694;27;19931;-80
2022/03/08 02:56:45;;;;;;;;;;;;;;;-1.49;54.87;98553.59;5117026;27;19984;-81
2022/03/08 02:59:19;;;;;;;;;;;;;;;-1.59;54.72;98559.41;5112767;27;19935;-81
2022/03/08 03:01:48;;;;;;;;;;;;;;;-1.44;55.36;98558.25;5116810;27;20620;-81
2022/03/08 03:04:16;;;;;;;;;;;;;;;-1.75;55.85;98553.81;5097479;27;19924;-81
2022/03/08 03:06:45;;;;;;;;;;;;;;;-1.53;55.13;98567.56;5101602;28;19924;-81
2022/03/08 03:09:13;;;;;;;;;;;;;;;-1.36;54.73;98564.13;5109885;28;19927;-80
2022/03/08 03:11:41;;;;;;;;;;;;;;;-1.65;55.98;98559.44;5114198;27;19930;-80
2022/03/08 03:14:10;;;;;;;;;;;;;;;-1.66;55.58;98568.47;5114370;27;19966;-79
2022/03/08 03:16:38;;;;;;;;;;;;;;;-1.59;55.81;98570.06;5110328;28;19938;-80
2022/03/08 03:19:09;;;;;;;;;;;;;;;-1.77;55.41;98561.19;5109659;28;20294;-80
2022/03/08 03:21:37;;;;;;;;;;;;;;;-1.65;56.05;98565.59;5113384;27;21902;-81
2022/03/08 03:24:06;;;;;;;;;;;;;;;-1.87;56.10;98562.47;5108718;28;19974;-82
2022/03/08 03:26:34;;;;;;;;;;;;;;;-1.65;56.16;98570.09;5091702;28;19931;-81
2022/03/08 03:29:02;;;;;;;;;;;;;;;-1.65;55.57;98573.59;5113661;27;19932;-81
2022/03/08 03:31:30;;;;;;;;;;;;;;;-1.61;55.67;98581.97;5110048;28;19925;-81
2022/03/08 03:33:58;;;;;;;;;;;;;;;-1.61;55.61;98577.44;5113946;27;19923;-82
2022/03/08 03:36:27;;;;;;;;;;;;;;;-1.56;55.80;98574.13;5108332;28;20026;-81
2022/03/08 03:38:55;;;;;;;;;;;;;;;-1.90;56.29;98580.72;5109454;28;19924;-80
2022/03/08 03:41:29;;;;;;;;;;;;;;;-1.93;56.98;98573.16;5109017;28;19931;-81
2022/03/08 03:43:57;;;;;;;;;;;;;;;-2.04;57.57;98572.00;5114044;28;19951;-81
2022/03/08 03:46:25;;;;;;;;;;;;;;;-1.86;57.33;98568.63;5110073;28;20297;-81
2022/03/08 03:49:00;;;;;;;;;;;;;;;-1.62;56.24;98570.47;5107812;28;20483;-81
2022/03/08 03:51:29;;;;;;;;;;;;;;;-1.59;56.43;98561.25;5119650;28;19923;-79
2022/03/08 03:53:57;;;;;;;;;;;;;;;-1.60;56.39;98551.59;5098709;28;20468;-79
2022/03/08 03:56:25;;;;;;;;;;;;;;;-1.61;55.74;98552.66;5109045;28;19928;-80
2022/03/08 03:58:56;;;;;;;;;;;;;;;-1.62;55.97;98559.00;5108787;28;19930;-80
2022/03/08 04:01:49;;;;;;;;;;;;;;;-1.93;56.49;98552.66;5099700;28;20359;-80
2022/03/08 04:04:21;;;;;;;;;;;;;;;-1.36;54.79;98550.81;5111807;28;19924;-81
2022/03/08 04:06:50;;;;;;;;;;;;;;;-1.45;55.26;98556.63;5111890;28;19935;-79
2022/03/08 04:09:19;;;;;;;;;;;;;;;-1.41;54.11;98560.50;5108758;28;19923;-79
2022/03/08 04:11:51;;;;;;;;;;;;;;;-1.42;55.14;98553.53;5114732;28;19928;-78
2022/03/08 04:14:19;;;;;;;;;;;;;;;-1.93;55.82;98551.84;5113999;28;19938;-79
2022/03/08 04:16:47;;;;;;;;;;;;;;;-1.81;55.93;98547.50;5108578;28;19924;-81
2022/03/08 04:19:32;;;;;;;;;;;;;;;-1.56;55.08;98552.00;5112981;28;20344;-79
2022/03/08 04:22:01;;;;;;;;;;;;;;;-1.46;54.71;98566.47;5111859;28;19930;-79
2022/03/08 04:24:30;;;;;;;;;;;;;;;-1.43;54.43;98559.91;5110743;28;19924;-79
2022/03/08 04:27:01;;;;;;;;;;;;;;;-1.30;54.31;98565.09;5107846;28;19973;-78
2022/03/08 04:29:29;;;;;;;;;;;;;;;-1.33;53.96;98565.56;5111256;28;19974;-79
2022/03/08 04:31:57;;;;;;;;;;;;;;;-1.38;54.38;98562.72;5107636;28;19927;-79
2022/03/08 04:34:25;;;;;;;;;;;;;;;-1.54;54.68;98558.75;5107821;28;19936;-78
2022/03/08 04:36:54;;;;;;;;;;;;;;;-1.62;55.34;98562.50;5110069;28;19923;-78
2022/03/08 04:39:47;;;;;;;;;;;;;;;-1.43;54.50;98567.91;5114296;28;20150;-80
2022/03/08 04:42:16;;;;;;;;;;;;;;;-1.59;55.19;98563.94;5107940;28;19932;-81
2022/03/08 04:44:44;;;;;;;;;;;;;;;-1.68;55.13;98559.88;5109518;28;19924;-79
2022/03/08 04:47:17;;;;;;;;;;;;;;;-1.59;54.84;98566.59;5108919;28;19931;-80
2022/03/08 04:49:46;;;;;;;;;;;;;;;-1.71;55.50;98574.44;5111130;28;19938;-81
2022/03/08 04:52:39;;;;;;;;;;;;;;;-1.71;55.16;98574.44;5119683;27;19923;-81
2022/03/08 04:55:07;;;;;;;;;;;;;;;-1.55;55.28;98567.75;5106365;27;20386;-80
2022/03/08 04:57:37;;;;;;;;;;;;;;;-1.43;54.99;98575.91;5112037;28;20290;-81
2022/03/08 05:00:05;;;;;;;;;;;;;;;-1.48;54.71;98573.88;5112725;27;19927;-79
2022/03/08 05:02:41;;;;;;;;;;;;;;;-1.49;55.27;98563.41;5086246;28;20374;-82
2022/03/08 05:05:10;;;;;;;;;;;;;;;-1.47;55.15;98566.69;5111630;28;19923;-79
2022/03/08 05:07:38;;;;;;;;;;;;;;;-1.54;55.06;98574.75;5113251;27;19968;-81
2022/03/08 05:10:06;;;;;;;;;;;;;;;-1.56;55.26;98573.31;5094576;28;20010;-81
2022/03/08 05:12:34;;;;;;;;;;;;;;;-1.50;54.58;98578.59;5114029;27;19958;-80
2022/03/08 05:15:04;;;;;;;;;;;;;;;-1.65;55.44;98581.59;5100145;28;20803;-80
2022/03/08 05:17:32;;;;;;;;;;;;;;;-1.72;55.61;98575.47;5113253;27;19927;-81
2022/03/08 05:20:00;;;;;;;;;;;;;;;-1.82;55.79;98576.97;5117816;27;19923;-80
2022/03/08 05:22:52;;;;;;;;;;;;;;;-2.02;56.24;98579.78;5115841;27;19977;-80
2022/03/08 05:25:25;;;;;;;;;;;;;;;-2.23;56.26;98581.75;5109653;28;19930;-83
2022/03/08 05:27:53;;;;;;;;;;;;;;;-2.00;56.22;98577.72;5111305;28;20018;-81
2022/03/08 05:30:22;;;;;;;;;;;;;;;-3.00;59.01;98580.75;5112767;27;20267;-84
2022/03/08 05:32:50;;;;;;;;;;;;;;;-3.12;59.69;98573.63;5111936;28;19969;-82
2022/03/08 05:35:18;;;;;;;;;;;;;;;-3.08;60.64;98572.22;5109100;27;19978;-81
2022/03/08 05:37:46;;;;;;;;;;;;;;;-2.89;60.30;98574.00;5095876;28;19932;-79
2022/03/08 05:40:13;;;;;;;;;;;;;;;-3.03;60.06;98578.53;5109527;27;19927;-78
2022/03/08 05:42:43;;;;;;;;;;;;;;;-3.04;59.87;98579.53;5109706;27;19936;-78
2022/03/08 05:45:12;;;;;;;;;;;;;;;-2.58;58.96;98581.25;5111007;27;19984;-79
2022/03/08 05:47:42;;;;;;;;;;;;;;;-2.54;58.16;98587.81;5109512;28;19942;-77
2022/03/08 05:50:11;;;;;;;;;;;;;;;-2.51;58.38;98586.56;5112541;27;22177;-78
2022/03/08 05:52:39;;;;;;;;;;;;;;;-2.47;58.56;98587.78;5114404;28;19928;-76
2022/03/08 05:55:08;;;;;;;;;;;;;;;-2.97;60.14;98580.34;5117185;28;19924;-78
2022/03/08 05:57:35;;;;;;;;;;;;;;;-2.82;60.09;98588.09;5112133;27;19928;-77
2022/03/08 06:00:04;;;;;;;;;;;;;;;-2.86;59.32;98591.38;5111193;28;19930;-76
2022/03/08 06:02:38;;;;;;;;;;;;;;;-2.84;59.73;98598.13;5106943;28;19927;-82
2022/03/08 06:05:11;;;;;;;;;;;;;;;-2.77;59.92;98590.97;5107855;27;19925;-78
2022/03/08 06:07:39;;;;;;;;;;;;;;;-2.52;58.46;98596.38;5109308;27;20015;-79
2022/03/08 06:10:08;;;;;;;;;;;;;;;-2.49;58.78;98603.94;5110959;27;19924;-79
2022/03/08 06:12:37;;;;;;;;;;;;;;;-2.43;58.89;98600.44;5108039;28;19935;-79
2022/03/08 06:15:30;;;;;;;;;;;;;;;-2.28;58.49;98600.19;5080207;28;19966;-77
2022/03/08 06:17:58;;;;;;;;;;;;;;;-2.38;57.98;98600.63;5105304;27;20597;-82
2022/03/08 06:20:27;;;;;;;;;;;;;;;-2.66;58.76;98606.25;5114373;27;20395;-86
2022/03/08 06:22:55;;;;;;;;;;;;;;;-2.33;58.25;98610.66;5096519;28;19931;-79
2022/03/08 06:25:22;;;;;;;;;;;;;;;-2.16;57.98;98606.47;5109971;28;19928;-77
2022/03/08 06:27:50;;;;;;;;;;;;;;;-1.86;56.92;98609.38;5094221;28;19924;-78
2022/03/08 06:30:18;;;;;;;;;;;;;;;-1.98;57.43;98608.41;5112103;27;19986;-79
2022/03/08 06:32:47;;;;;;;;;;;;;;;-2.03;57.58;98613.56;5110920;27;19973;-81
2022/03/08 06:35:14;;;;;;;;;;;;;;;-2.06;57.23;98611.34;5110890;28;19923;-78
2022/03/08 06:37:44;;;;;;;;;;;;;;;-1.91;57.35;98613.72;5116458;27;19945;-79
2022/03/08 06:40:12;;;;;;;;;;;;;;;-2.14;57.97;98603.59;5111039;28;19923;-78
2022/03/08 06:42:41;;;;;;;;;;;;;;;-2.15;58.20;98602.78;5096357;27;20381;-80
2022/03/08 06:45:10;;;;;;;;;;;;;;;-2.03;57.78;98610.09;5096761;28;20354;-78
2022/03/08 06:47:41;;;;;;;;;;;;;;;-2.03;58.36;98604.75;5110575;27;19924;-78
2022/03/08 06:50:10;;;;;;;;;;;;;;;-1.91;58.18;98601.22;5108980;28;19931;-77
2022/03/08 06:52:40;;;;;;;;;;;;;;;-2.03;58.50;98605.56;5083017;28;19939;-77
2022/03/08 06:55:10;;;;;;;;;;;;;;;-1.83;58.48;98602.81;5100125;27;20361;-78
2022/03/08 06:57:38;;;;;;;;;;;;;;;-1.69;57.91;98601.69;5117954;27;19924;-79
2022/03/08 07:00:07;;;;;;;;;;;;;;;-1.51;57.43;98602.78;5113741;27;19924;-79
2022/03/08 07:02:35;;;;;;;;;;;;;;;-1.36;57.06;98605.97;5111811;27;19977;-80
2022/03/08 07:05:04;;;;;;;;;;;;;;;-1.32;56.89;98607.97;5111500;27;20385;-78
2022/03/08 07:07:32;;;;;;;;;;;;;;;-1.25;57.05;98610.59;5103229;28;20332;-80
2022/03/08 07:10:01;;;;;;;;;;;;;;;-1.13;56.67;98606.16;5090559;28;19923;-78
2022/03/08 07:12:30;;;;;;;;;;;;;;;-1.09;56.52;98606.56;5095476;28;19924;-79
2022/03/08 07:14:58;;;;;;;;;;;;;;;-0.97;56.34;98601.31;5107858;28;19934;-79
2022/03/08 07:17:32;;;;;;;;;;;;;;;-0.98;56.93;98605.03;5106751;27;19930;-77
2022/03/08 07:20:00;;;;;;;;;;;;;;;-0.98;56.30;98602.34;5109475;27;19923;-79
2022/03/08 07:22:28;;;;;;;;;;;;;;;-0.79;56.77;98612.03;5110546;27;20310;-79
2022/03/08 07:24:56;;;;;;;;;;;;;;;-0.71;55.71;98598.38;5101493;27;19968;-79
2022/03/08 07:27:23;;;;;;;;;;;;;;;-0.57;55.80;98599.88;5107689;28;19927;-78
2022/03/08 07:29:53;;;;;;;;;;;;;;;-0.43;55.49;98594.38;5097859;28;20271;-80
2022/03/08 07:32:21;;;;;;;;;;;;;;;-0.40;55.47;98599.28;5093719;28;19924;-80
2022/03/08 07:34:48;;;;;;;;;;;;;;;-0.38;55.91;98598.00;5112286;28;19935;-79
2022/03/08 07:37:16;;;;;;;;;;;;;;;-0.22;55.29;98601.91;5089357;28;19924;-79
2022/03/08 07:39:46;;;;;;;;;;;;;;;-0.05;54.96;98597.59;5110652;28;19985;-78
2022/03/08 07:42:13;;;;;;;;;;;;;;;0.03;54.48;98599.13;5109884;28;20357;-82
2022/03/08 07:44:44;;;;;;;;;;;;;;;0.11;54.35;98596.16;5107774;28;19928;-90
2022/03/08 07:47:13;;;;;;;;;;;;;;;0.32;54.45;98585.97;5093478;28;19928;-82
2022/03/08 07:49:41;;;;;;;;;;;;;;;0.45;54.68;98607.16;5112655;28;19953;-80
2022/03/08 07:52:09;;;;;;;;;;;;;;;0.42;54.76;98600.41;5112152;28;19946;-82
2022/03/08 07:54:37;;;;;;;;;;;;;;;0.47;54.23;98605.88;5112632;28;19932;-79
2022/03/08 07:57:05;;;;;;;;;;;;;;;0.58;53.63;98603.47;5084799;28;20336;-84
2022/03/08 07:59:33;;;;;;;;;;;;;;;0.60;54.19;98606.75;5121071;28;19924;-83
2022/03/08 08:02:01;;;;;;;;;;;;;;;0.84;53.81;98599.56;5118134;28;19924;-82
2022/03/08 08:04:30;;;;;;;;;;;;;;;0.94;53.56;98600.63;5112130;28;19938;-82
2022/03/08 08:06:58;;;;;;;;;;;;;;;1.04;53.86;98611.56;5108749;28;19967;-79
2022/03/08 08:09:26;;;;;;;;;;;;;;;1.21;53.46;98617.00;5108601;28;20584;-80
2022/03/08 08:11:55;;;;;;;;;;;;;;;1.28;53.29;98600.84;5107414;28;19940;-85
2022/03/08 08:14:23;;;;;;;;;;;;;;;1.38;52.86;98611.75;5108804;28;19924;-81
2022/03/08 08:16:51;;;;;;;;;;;;;;;1.58;52.77;98611.38;5111026;28;20323;-79
2022/03/08 08:19:44;;;;;;;;;;;;;;;1.67;52.29;98604.63;5109183;28;19930;-79
2022/03/08 08:22:13;;;;;;;;;;;;;;;1.71;52.80;98604.97;5106172;28;20369;-79
2022/03/08 08:24:41;;;;;;;;;;;;;;;1.77;52.36;98602.16;5108000;27;20266;-83
2022/03/08 08:27:09;;;;;;;;;;;;;;;1.86;52.31;98601.78;5110052;27;19931;-80
2022/03/08 08:29:37;;;;;;;;;;;;;;;2.16;51.53;98602.34;5111385;27;19936;-80
2022/03/08 08:32:05;;;;;;;;;;;;;;;2.25;51.63;98600.13;5116975;27;20029;-80
2022/03/08 08:34:33;;;;;;;;;;;;;;;2.32;50.93;98598.09;5095392;27;20298;-79
2022/03/08 08:37:01;;;;;;;;;;;;;;;2.23;51.12;98602.22;5112781;27;20023;-82
2022/03/08 08:39:54;;;;;;;;;;;;;;;2.47;51.18;98602.91;5114624;27;19965;-81
2022/03/08 08:42:33;;;;;;;;;;;;;;;2.67;50.62;98600.59;5108517;27;19928;-79
2022/03/08 08:45:04;;;;;;;;;;;;;;;3.01;49.79;98598.69;5113354;27;19924;-77
2022/03/08 08:47:32;;;;;;;;;;;;;;;3.05;49.82;98605.22;5112735;27;20456;-80
2022/03/08 08:50:00;;;;;;;;;;;;;;;3.25;49.42;98604.72;5087761;28;20548;-79
2022/03/08 08:52:28;;;;;;;;;;;;;;;3.27;48.71;98596.41;5101098;28;20366;-79
2022/03/08 08:54:57;;;;;;;;;;;;;;;3.49;48.21;98594.56;5117772;27;19932;-78
2022/03/08 08:57:28;;;;;;;;;;;;;;;3.51;48.34;98592.41;5106149;27;19924;-83
2022/03/08 08:59:58;;;;;;;;;;;;;;;3.67;47.78;98588.91;5112371;27;19976;-76
2022/03/08 09:02:26;;;;;;;;;;;;;;;3.83;46.61;98589.06;5124016;27;19924;-81
2022/03/08 09:04:57;;;;;;;;;;;;;;;4.01;46.90;98586.06;5118458;27;19969;-79
2022/03/08 09:07:25;;;;;;;;;;;;;;;4.03;46.69;98581.22;5116571;27;19932;-81
2022/03/08 09:09:54;;;;;;;;;;;;;;;4.24;45.93;98589.53;5107459;28;19989;-81
2022/03/08 09:12:25;;;;;;;;;;;;;;;4.56;44.80;98597.63;5110473;27;19924;-79
2022/03/08 09:17:44;;;;;;;;;;;;;;;4.01;45.31;98586.06;5088320;28;19924;-84
2022/03/08 09:20:14;;;;;;;;;;;;;;;4.32;45.60;98586.38;5107707;27;20374;-81
2022/03/08 09:22:45;;;;;;;;;;;;;;;4.55;44.45;98591.44;5109005;27;19924;-81
2022/03/08 09:25:13;;;;;;;;;;;;;;;4.70;44.04;98580.81;5110378;27;19923;-80
2022/03/08 09:27:41;;;;;;;;;;;;;;;4.88;43.01;98584.19;5093290;28;19953;-79
2022/03/08 09:30:12;;;;;;;;;;;;;;;4.98;42.03;98578.88;5089399;28;19932;-79
2022/03/08 09:32:41;;;;;;;;;;;;;;;4.67;43.69;98584.00;5107198;27;19989;-80
2022/03/08 09:35:09;;;;;;;;;;;;;;;4.79;41.79;98578.44;5105966;28;19923;-82
2022/03/08 09:37:40;;;;;;;;;;;;;;;4.78;43.12;98584.09;5102420;28;20442;-84
2022/03/08 09:40:11;;;;;;;;;;;;;;;5.12;42.66;98580.06;5104521;27;19976;-79
2022/03/08 09:42:41;;;;;;;;;;;;;;;5.42;41.31;98567.81;5109958;27;19947;-81
2022/03/08 09:45:09;;;;;;;;;;;;;;;5.31;39.76;98571.53;5110252;28;19924;-79
2022/03/08 09:47:41;;;;;;;;;;;;;;;5.48;38.86;98566.78;5104152;27;19939;-78
2022/03/08 09:50:19;;;;;;;;;;;;;;;5.74;38.52;98565.81;5107934;27;19986;-78
2022/03/08 09:52:53;;;;;;;;;;;;;;;5.70;38.18;98567.44;5087871;28;19966;-81
2022/03/08 09:55:23;;;;;;;;;;;;;;;6.09;37.51;98564.34;5088202;28;19932;-81
2022/03/08 09:57:51;;;;;;;;;;;;;;;6.09;37.19;98574.34;5105035;27;19992;-78
2022/03/08 10:00:21;;;;;;;;;;;;;;;6.19;36.83;98567.06;5107268;27;20301;-79
2022/03/08 10:02:50;;;;;;;;;;;;;;;5.96;35.57;98567.53;5109662;27;20332;-82
2022/03/08 10:05:22;;;;;;;;;;;;;;;5.88;35.24;98568.03;5115061;27;19928;-82
2022/03/08 10:08:03;;;;;;;;;;;;;;;6.03;37.21;98568.13;5108019;27;19942;-79
2022/03/08 10:10:32;;;;;;;;;;;;;;;6.35;34.69;98564.41;5105164;28;20051;-79
2022/03/08 10:13:01;;;;;;;;;;;;;;;6.26;34.23;98561.41;5103364;27;19930;-79
2022/03/08 10:15:29;;;;;;;;;;;;;;;6.38;35.20;98570.06;5094130;28;19924;-80
2022/03/08 10:17:58;;;;;;;;;;;;;;;6.67;34.96;98562.28;5091393;28;20016;-80
2022/03/08 10:20:29;;;;;;;;;;;;;;;7.01;34.49;98559.00;5080564;28;19925;-80
2022/03/08 10:22:57;;;;;;;;;;;;;;;6.77;32.61;98556.88;5089148;28;19932;-83
2022/03/08 10:25:26;;;;;;;;;;;;;;;6.45;32.30;98559.84;5090642;28;19924;-81
2022/03/08 10:28:01;;;;;;;;;;;;;;;6.77;34.69;98556.88;5085493;28;19928;-80
2022/03/08 10:30:29;;;;;;;;;;;;;;;6.89;33.21;98550.38;5094141;28;19932;-80
2022/03/08 10:33:06;;;;;;;;;;;;;;;6.92;33.77;98550.63;5089263;28;20279;-81
2022/03/08 10:35:38;;;;;;;;;;;;;;;6.88;35.07;98554.97;5091074;28;19943;-82
2022/03/08 10:38:08;;;;;;;;;;;;;;;6.77;33.67;98559.59;5091523;28;19930;-81
2022/03/08 10:40:36;;;;;;;;;;;;;;;6.80;32.41;98553.63;5091550;28;19939;-82
2022/03/08 10:43:29;;;;;;;;;;;;;;;6.34;32.76;98554.66;5089573;28;19924;-78
2022/03/08 10:45:57;;;;;;;;;;;;;;;6.37;33.33;98546.84;5089478;28;19932;-81
2022/03/08 10:48:35;;;;;;;;;;;;;;;6.30;33.58;98551.72;5084830;28;19929;-81
2022/03/08 10:51:11;;;;;;;;;;;;;;;6.22;31.97;98539.53;5091684;28;19924;-82
2022/03/08 10:53:40;;;;;;;;;;;;;;;6.55;32.73;98542.81;5098785;28;19923;-79
2022/03/08 10:56:08;;;;;;;;;;;;;;;6.48;32.64;98542.28;5095319;28;19928;-82
2022/03/08 10:58:37;;;;;;;;;;;;;;;6.57;32.84;98540.66;5089962;28;19978;-80
2022/03/08 11:04:08;;;;;;;;;;;;;;;7.14;34.05;98528.75;5102227;28;19924;-82
2022/03/08 11:06:37;;;;;;;;;;;;;;;6.53;31.91;98523.38;5084885;28;19924;-83
2022/03/08 11:09:06;;;;;;;;;;;;;;;6.70;32.74;98515.81;5098814;28;19993;-80
2022/03/08 11:11:34;;;;;;;;;;;;;;;6.81;32.27;98520.13;5075498;28;19924;-80
2022/03/08 11:14:03;;;;;;;;;;;;;;;6.67;31.52;98510.97;5109163;27;19945;-81
2022/03/08 11:16:31;;;;;;;;;;;;;;;6.87;31.59;98507.47;5115098;27;19931;-77
2022/03/08 11:19:01;;;;;;;;;;;;;;;6.75;31.63;98505.00;5118106;27;20288;-82
2022/03/08 11:21:30;;;;;;;;;;;;;;;7.27;31.95;98495.72;5119605;27;19969;-79
2022/03/08 11:23:59;;;;;;;;;;;;;;;7.40;30.71;98498.91;5100308;27;19990;-81
2022/03/08 11:26:27;;;;;;;;;;;;;;;7.35;30.49;98495.19;5120762;27;19935;-82
2022/03/08 11:31:54;;;;;;;;;;;;;;;7.51;29.43;98497.78;5121040;27;19923;-80
2022/03/08 11:34:25;;;;;;;;;;;;;;;7.44;30.18;98500.00;5119187;28;19924;-80
2022/03/08 11:36:58;;;;;;;;;;;;;;;7.45;29.85;98493.50;5131095;27;19932;-81
2022/03/08 11:39:27;;;;;;;;;;;;;;;7.38;30.31;98493.78;5127839;28;19945;-78
2022/03/08 11:42:26;;;;;;;;;;;;;;;7.77;30.27;98488.47;5122137;28;19924;-80
2022/03/08 11:44:56;;;;;;;;;;;;;;;7.37;29.82;98491.38;5123595;28;19932;-83
2022/03/08 11:47:24;;;;;;;;;;;;;;;7.70;30.23;98482.56;5130018;28;19947;-80
2022/03/08 11:49:58;;;;;;;;;;;;;;;7.86;29.31;98486.00;5129845;28;19939;-80
2022/03/08 11:55:25;;;;;;;;;;;;;;;7.82;29.52;98482.22;5083942;28;20445;-82
2022/03/08 11:57:54;;;;;;;;;;;;;;;7.90;30.20;98480.84;5116367;28;19924;-84
2022/03/08 12:00:23;;;;;;;;;;;;;;;7.80;29.69;98482.53;5120108;27;20014;-79
2022/03/08 12:02:52;;;;;;;;;;;;;;;7.89;30.85;98490.88;5113405;27;19930;-81
2022/03/08 12:05:38;;;;;;;;;;;;;;;7.94;29.35;98484.63;5116872;27;19923;-81
2022/03/08 12:08:24;;;;;;;;;;;;;;;8.17;30.05;98483.91;5121454;27;20285;-82
2022/03/08 12:11:00;;;;;;;;;;;;;;;8.42;29.20;98482.16;5122873;27;19923;-82
2022/03/08 12:13:38;;;;;;;;;;;;;;;7.99;29.00;98484.56;5091190;27;19927;-80
2022/03/08 12:16:14;;;;;;;;;;;;;;;7.98;29.67;98489.16;5098606;28;19942;-83
2022/03/08 12:18:42;;;;;;;;;;;;;;;8.19;28.62;98472.81;5117816;27;19934;-82
2022/03/08 12:21:29;;;;;;;;;;;;;;;8.30;29.02;98469.72;5117140;27;19927;-79
2022/03/08 12:23:57;;;;;;;;;;;;;;;8.20;28.38;98460.88;5114912;27;19934;-79
2022/03/08 12:26:27;;;;;;;;;;;;;;;8.20;28.21;98460.88;5121310;27;20382;-82
2022/03/08 12:29:07;;;;;;;;;;;;;;;8.27;28.59;98464.09;5106020;27;19976;-81
2022/03/08 12:31:55;;;;;;;;;;;;;;;8.31;27.73;98465.13;5115631;27;19936;-83
2022/03/08 12:34:35;;;;;;;;;;;;;;;7.80;28.23;98466.28;5098303;28;19967;-80
2022/03/08 12:37:23;;;;;;;;;;;;;;;8.24;30.25;98480.88;5094596;27;21116;-78
2022/03/08 12:39:55;;;;;;;;;;;;;;;8.15;28.47;98478.00;5115695;27;20291;-81
2022/03/08 12:42:30;;;;;;;;;;;;;;;8.38;28.76;98473.78;5105746;27;20026;-79
2022/03/08 12:45:17;;;;;;;;;;;;;;;8.40;27.82;98466.97;5117865;27;20386;-79
2022/03/08 12:47:46;;;;;;;;;;;;;;;8.08;29.11;98453.94;5102144;27;19928;-78
2022/03/08 12:50:15;;;;;;;;;;;;;;;8.25;29.29;98453.53;5119409;27;19924;-80
2022/03/08 12:52:46;;;;;;;;;;;;;;;8.45;28.07;98451.78;5118873;27;20018;-80
2022/03/08 12:55:15;;;;;;;;;;;;;;;8.62;28.05;98450.25;5101056;27;19995;-78
2022/03/08 12:57:49;;;;;;;;;;;;;;;8.26;27.14;98455.16;5095020;27;19977;-79
2022/03/08 13:00:26;;;;;;;;;;;;;;;8.09;27.52;98460.94;5099007;27;19924;-79
2022/03/08 13:02:55;;;;;;;;;;;;;;;8.28;27.02;98454.88;5120542;27;20373;-82
2022/03/08 13:05:27;;;;;;;;;;;;;;;8.69;26.37;98452.66;5116690;27;19924;-81
2022/03/08 13:07:55;;;;;;;;;;;;;;;8.76;27.31;98457.75;5117270;27;19932;-83
2022/03/08 13:10:24;;;;;;;;;;;;;;;8.89;26.39;98454.34;5121064;27;20382;-82
2022/03/08 13:12:55;;;;;;;;;;;;;;;8.66;26.85;98447.81;5107809;27;19927;-79
2022/03/08 13:15:24;;;;;;;;;;;;;;;8.44;27.58;98452.88;5114023;27;19923;-82
2022/03/08 13:17:54;;;;;;;;;;;;;;;8.62;28.29;98449.47;5079429;27;19928;-82
2022/03/08 13:20:39;;;;;;;;;;;;;;;8.58;26.91;98453.84;5116729;27;20433;-80
2022/03/08 13:23:09;;;;;;;;;;;;;;;8.55;26.69;98449.00;5117904;27;19931;-79
2022/03/08 13:25:37;;;;;;;;;;;;;;;8.67;27.07;98457.53;5114713;27;19924;-80